sensor_id;sensor_type;location;lat;lon;timestamp;P1;durP1;ratioP1;P2;durP2;ratioP2
76176;SDS011;64938;47.696;8.066;2024-02-14T00:02:24;1.70;;;1.60;;
76176;SDS011;64938;47.696;8.066;2024-02-14T00:04:52;1.83;;;1.33;;
76176;SDS011;64938;47.696;8.066;2024-02-14T00:07:18;1.97;;;1.80;;
76176;SDS011;64938;47.696;8.066;2024-02-14T00:09:45;1.40;;;1.30;;
76176;SDS011;64938;47.696;8.066;2024-02-14T00:12:14;2.17;;;1.50;;
76176;SDS011;64938;47.696;8.066;2024-02-14T00:14:40;2.37;;;1.80;;
76176;SDS011;64938;47.696;8.066;2024-02-14T00:17:06;1.60;;;1.23;;
76176;SDS011;64938;47.696;8.066;2024-02-14T00:19:32;1.87;;;1.60;;
76176;SDS011;64938;47.696;8.066;2024-02-14T00:21:58;6.37;;;1.70;;
76176;SDS011;64938;47.696;8.066;2024-02-14T00:24:25;1.67;;;1.50;;
76176;SDS011;64938;47.696;8.066;2024-02-14T00:26:52;3.53;;;1.93;;
76176;SDS011;64938;47.696;8.066;2024-02-14T00:29:17;3.70;;;2.07;;
76176;SDS011;64938;47.696;8.066;2024-02-14T00:31:43;2.53;;;1.63;;
76176;SDS011;64938;47.696;8.066;2024-02-14T00:34:09;2.47;;;1.67;;
76176;SDS011;64938;47.696;8.066;2024-02-14T00:36:36;3.20;;;2.27;;
76176;SDS011;64938;47.696;8.066;2024-02-14T00:39:02;4.80;;;2.10;;
76176;SDS011;64938;47.696;8.066;2024-02-14T00:41:28;3.13;;;2.03;;
76176;SDS011;64938;47.696;8.066;2024-02-14T00:43:56;2.17;;;1.40;;
76176;SDS011;64938;47.696;8.066;2024-02-14T00:46:22;1.90;;;1.80;;
76176;SDS011;64938;47.696;8.066;2024-02-14T00:48:48;3.13;;;1.70;;
76176;SDS011;64938;47.696;8.066;2024-02-14T00:51:13;3.87;;;1.40;;
76176;SDS011;64938;47.696;8.066;2024-02-14T00:53:40;2.40;;;1.97;;
76176;SDS011;64938;47.696;8.066;2024-02-14T00:56:06;3.40;;;1.40;;
76176;SDS011;64938;47.696;8.066;2024-02-14T00:58:32;2.30;;;1.27;;
76176;SDS011;64938;47.696;8.066;2024-02-14T01:00:58;4.10;;;2.00;;
76176;SDS011;64938;47.696;8.066;2024-02-14T01:03:24;3.93;;;1.90;;
76176;SDS011;64938;47.696;8.066;2024-02-14T01:05:50;2.60;;;2.30;;
76176;SDS011;64938;47.696;8.066;2024-02-14T01:08:16;2.57;;;1.73;;
76176;SDS011;64938;47.696;8.066;2024-02-14T01:10:42;1.83;;;1.73;;
76176;SDS011;64938;47.696;8.066;2024-02-14T01:13:08;1.87;;;1.67;;
76176;SDS011;64938;47.696;8.066;2024-02-14T01:15:34;5.20;;;2.43;;
76176;SDS011;64938;47.696;8.066;2024-02-14T01:18:00;5.17;;;1.90;;
76176;SDS011;64938;47.696;8.066;2024-02-14T01:20:26;1.60;;;1.50;;
76176;SDS011;64938;47.696;8.066;2024-02-14T01:22:52;1.77;;;1.63;;
76176;SDS011;64938;47.696;8.066;2024-02-14T01:25:18;1.93;;;1.50;;
76176;SDS011;64938;47.696;8.066;2024-02-14T01:27:43;1.93;;;1.30;;
76176;SDS011;64938;47.696;8.066;2024-02-14T01:30:10;2.53;;;1.67;;
76176;SDS011;64938;47.696;8.066;2024-02-14T01:32:36;6.33;;;2.00;;
76176;SDS011;64938;47.696;8.066;2024-02-14T01:35:02;4.03;;;2.20;;
76176;SDS011;64938;47.696;8.066;2024-02-14T01:37:29;2.17;;;1.80;;
76176;SDS011;64938;47.696;8.066;2024-02-14T01:39:55;3.10;;;1.83;;
76176;SDS011;64938;47.696;8.066;2024-02-14T01:42:21;2.03;;;1.33;;
76176;SDS011;64938;47.696;8.066;2024-02-14T01:44:47;2.53;;;1.60;;
76176;SDS011;64938;47.696;8.066;2024-02-14T01:47:13;1.87;;;1.60;;
76176;SDS011;64938;47.696;8.066;2024-02-14T01:49:39;4.00;;;1.70;;
76176;SDS011;64938;47.696;8.066;2024-02-14T01:52:08;2.10;;;1.83;;
76176;SDS011;64938;47.696;8.066;2024-02-14T01:54:34;3.43;;;1.90;;
76176;SDS011;64938;47.696;8.066;2024-02-14T01:57:01;2.30;;;2.00;;
76176;SDS011;64938;47.696;8.066;2024-02-14T01:59:27;2.67;;;1.67;;
76176;SDS011;64938;47.696;8.066;2024-02-14T02:01:53;2.80;;;1.80;;
76176;SDS011;64938;47.696;8.066;2024-02-14T02:04:19;4.07;;;1.50;;
76176;SDS011;64938;47.696;8.066;2024-02-14T02:06:46;2.00;;;1.70;;
76176;SDS011;64938;47.696;8.066;2024-02-14T02:09:12;5.03;;;2.30;;
76176;SDS011;64938;47.696;8.066;2024-02-14T02:11:53;3.27;;;1.90;;
76176;SDS011;64938;47.696;8.066;2024-02-14T02:14:21;2.90;;;1.60;;
76176;SDS011;64938;47.696;8.066;2024-02-14T02:16:47;4.70;;;1.70;;
76176;SDS011;64938;47.696;8.066;2024-02-14T02:19:14;3.03;;;1.47;;
76176;SDS011;64938;47.696;8.066;2024-02-14T02:21:42;6.50;;;1.70;;
76176;SDS011;64938;47.696;8.066;2024-02-14T02:24:11;1.87;;;1.50;;
76176;SDS011;64938;47.696;8.066;2024-02-14T02:26:38;1.83;;;1.40;;
76176;SDS011;64938;47.696;8.066;2024-02-14T02:29:04;1.93;;;1.53;;
76176;SDS011;64938;47.696;8.066;2024-02-14T02:31:31;1.77;;;1.50;;
76176;SDS011;64938;47.696;8.066;2024-02-14T02:33:58;2.60;;;1.43;;
76176;SDS011;64938;47.696;8.066;2024-02-14T02:36:24;1.70;;;1.40;;
76176;SDS011;64938;47.696;8.066;2024-02-14T02:38:50;4.63;;;1.33;;
76176;SDS011;64938;47.696;8.066;2024-02-14T02:41:17;3.70;;;1.80;;
76176;SDS011;64938;47.696;8.066;2024-02-14T02:43:42;1.90;;;1.50;;
76176;SDS011;64938;47.696;8.066;2024-02-14T02:46:09;1.50;;;1.40;;
76176;SDS011;64938;47.696;8.066;2024-02-14T02:48:34;3.43;;;1.33;;
76176;SDS011;64938;47.696;8.066;2024-02-14T02:51:01;2.80;;;1.40;;
76176;SDS011;64938;47.696;8.066;2024-02-14T02:53:27;1.40;;;1.30;;
76176;SDS011;64938;47.696;8.066;2024-02-14T02:55:53;3.53;;;1.40;;
76176;SDS011;64938;47.696;8.066;2024-02-14T02:58:19;3.43;;;1.90;;
76176;SDS011;64938;47.696;8.066;2024-02-14T03:00:46;1.60;;;1.37;;
76176;SDS011;64938;47.696;8.066;2024-02-14T03:03:14;2.43;;;1.63;;
76176;SDS011;64938;47.696;8.066;2024-02-14T03:05:41;2.00;;;1.80;;
76176;SDS011;64938;47.696;8.066;2024-02-14T03:08:10;1.50;;;1.40;;
76176;SDS011;64938;47.696;8.066;2024-02-14T03:10:40;1.57;;;1.40;;
76176;SDS011;64938;47.696;8.066;2024-02-14T03:13:07;5.77;;;1.70;;
76176;SDS011;64938;47.696;8.066;2024-02-14T03:15:37;2.23;;;1.30;;
76176;SDS011;64938;47.696;8.066;2024-02-14T03:18:03;1.97;;;1.20;;
76176;SDS011;64938;47.696;8.066;2024-02-14T03:20:34;1.30;;;1.10;;
76176;SDS011;64938;47.696;8.066;2024-02-14T03:23:02;2.90;;;1.60;;
76176;SDS011;64938;47.696;8.066;2024-02-14T03:25:29;1.70;;;1.20;;
76176;SDS011;64938;47.696;8.066;2024-02-14T03:27:55;1.40;;;1.20;;
76176;SDS011;64938;47.696;8.066;2024-02-14T03:30:22;1.57;;;1.20;;
76176;SDS011;64938;47.696;8.066;2024-02-14T03:32:48;1.43;;;1.33;;
76176;SDS011;64938;47.696;8.066;2024-02-14T03:35:15;2.83;;;1.40;;
76176;SDS011;64938;47.696;8.066;2024-02-14T03:37:42;2.17;;;1.20;;
76176;SDS011;64938;47.696;8.066;2024-02-14T03:40:09;1.50;;;1.30;;
76176;SDS011;64938;47.696;8.066;2024-02-14T03:42:35;2.43;;;2.23;;
76176;SDS011;64938;47.696;8.066;2024-02-14T03:45:02;4.37;;;1.40;;
76176;SDS011;64938;47.696;8.066;2024-02-14T03:47:32;1.20;;;1.00;;
76176;SDS011;64938;47.696;8.066;2024-02-14T03:49:59;1.43;;;1.33;;
76176;SDS011;64938;47.696;8.066;2024-02-14T03:52:25;2.40;;;1.33;;
76176;SDS011;64938;47.696;8.066;2024-02-14T03:54:51;3.30;;;1.20;;
76176;SDS011;64938;47.696;8.066;2024-02-14T03:57:17;1.67;;;1.43;;
76176;SDS011;64938;47.696;8.066;2024-02-14T03:59:44;1.30;;;1.10;;
76176;SDS011;64938;47.696;8.066;2024-02-14T04:02:10;1.40;;;1.30;;
76176;SDS011;64938;47.696;8.066;2024-02-14T04:04:36;1.40;;;1.20;;
76176;SDS011;64938;47.696;8.066;2024-02-14T04:07:03;1.87;;;1.40;;
76176;SDS011;64938;47.696;8.066;2024-02-14T04:09:29;1.23;;;1.13;;
76176;SDS011;64938;47.696;8.066;2024-02-14T04:11:55;1.80;;;1.20;;
76176;SDS011;64938;47.696;8.066;2024-02-14T04:14:21;1.53;;;1.10;;
76176;SDS011;64938;47.696;8.066;2024-02-14T04:16:46;1.80;;;1.20;;
76176;SDS011;64938;47.696;8.066;2024-02-14T04:19:12;1.33;;;1.23;;
76176;SDS011;64938;47.696;8.066;2024-02-14T04:21:38;1.83;;;1.23;;
76176;SDS011;64938;47.696;8.066;2024-02-14T04:24:04;2.03;;;1.33;;
76176;SDS011;64938;47.696;8.066;2024-02-14T04:26:30;2.40;;;1.40;;
76176;SDS011;64938;47.696;8.066;2024-02-14T04:28:56;1.27;;;1.17;;
76176;SDS011;64938;47.696;8.066;2024-02-14T04:31:22;1.20;;;1.10;;
76176;SDS011;64938;47.696;8.066;2024-02-14T04:33:48;1.63;;;1.13;;
76176;SDS011;64938;47.696;8.066;2024-02-14T04:36:18;1.30;;;1.10;;
76176;SDS011;64938;47.696;8.066;2024-02-14T04:38:46;2.97;;;1.30;;
76176;SDS011;64938;47.696;8.066;2024-02-14T04:41:12;1.37;;;1.27;;
76176;SDS011;64938;47.696;8.066;2024-02-14T04:43:39;1.53;;;1.30;;
76176;SDS011;64938;47.696;8.066;2024-02-14T04:46:05;2.53;;;1.57;;
76176;SDS011;64938;47.696;8.066;2024-02-14T04:48:32;1.87;;;1.67;;
76176;SDS011;64938;47.696;8.066;2024-02-14T04:50:58;2.60;;;1.40;;
76176;SDS011;64938;47.696;8.066;2024-02-14T04:53:24;1.20;;;1.10;;
76176;SDS011;64938;47.696;8.066;2024-02-14T04:55:50;1.50;;;1.03;;
76176;SDS011;64938;47.696;8.066;2024-02-14T04:58:16;1.30;;;1.20;;
76176;SDS011;64938;47.696;8.066;2024-02-14T05:00:42;1.63;;;1.43;;
76176;SDS011;64938;47.696;8.066;2024-02-14T05:03:08;1.17;;;1.07;;
76176;SDS011;64938;47.696;8.066;2024-02-14T05:05:35;1.40;;;1.30;;
76176;SDS011;64938;47.696;8.066;2024-02-14T05:08:01;1.33;;;1.07;;
76176;SDS011;64938;47.696;8.066;2024-02-14T05:10:28;2.33;;;1.40;;
76176;SDS011;64938;47.696;8.066;2024-02-14T05:12:54;1.50;;;1.40;;
76176;SDS011;64938;47.696;8.066;2024-02-14T05:15:20;1.93;;;1.30;;
76176;SDS011;64938;47.696;8.066;2024-02-14T05:17:46;1.63;;;1.30;;
76176;SDS011;64938;47.696;8.066;2024-02-14T05:20:12;1.30;;;1.10;;
76176;SDS011;64938;47.696;8.066;2024-02-14T05:22:38;1.77;;;1.10;;
76176;SDS011;64938;47.696;8.066;2024-02-14T05:25:04;1.60;;;1.07;;
76176;SDS011;64938;47.696;8.066;2024-02-14T05:27:32;2.80;;;1.10;;
76176;SDS011;64938;47.696;8.066;2024-02-14T05:29:58;1.47;;;1.30;;
76176;SDS011;64938;47.696;8.066;2024-02-14T05:32:24;3.40;;;1.30;;
76176;SDS011;64938;47.696;8.066;2024-02-14T05:34:50;1.17;;;0.97;;
76176;SDS011;64938;47.696;8.066;2024-02-14T05:37:16;1.20;;;1.00;;
76176;SDS011;64938;47.696;8.066;2024-02-14T05:39:42;1.87;;;1.43;;
76176;SDS011;64938;47.696;8.066;2024-02-14T05:42:11;1.37;;;1.07;;
76176;SDS011;64938;47.696;8.066;2024-02-14T05:44:37;2.13;;;1.57;;
76176;SDS011;64938;47.696;8.066;2024-02-14T05:47:03;1.00;;;0.87;;
76176;SDS011;64938;47.696;8.066;2024-02-14T05:49:29;1.30;;;1.20;;
76176;SDS011;64938;47.696;8.066;2024-02-14T05:51:54;5.40;;;1.20;;
76176;SDS011;64938;47.696;8.066;2024-02-14T05:54:20;1.30;;;1.13;;
76176;SDS011;64938;47.696;8.066;2024-02-14T05:56:46;1.70;;;1.23;;
76176;SDS011;64938;47.696;8.066;2024-02-14T05:59:12;1.60;;;1.40;;
76176;SDS011;64938;47.696;8.066;2024-02-14T06:01:38;2.13;;;1.50;;
76176;SDS011;64938;47.696;8.066;2024-02-14T06:04:04;2.83;;;1.30;;
76176;SDS011;64938;47.696;8.066;2024-02-14T06:06:30;1.50;;;1.40;;
76176;SDS011;64938;47.696;8.066;2024-02-14T06:08:55;1.27;;;1.00;;
76176;SDS011;64938;47.696;8.066;2024-02-14T06:11:22;1.67;;;1.27;;
76176;SDS011;64938;47.696;8.066;2024-02-14T06:13:48;1.70;;;1.10;;
76176;SDS011;64938;47.696;8.066;2024-02-14T06:16:14;2.00;;;1.30;;
76176;SDS011;64938;47.696;8.066;2024-02-14T06:18:40;1.90;;;1.33;;
76176;SDS011;64938;47.696;8.066;2024-02-14T06:21:06;1.30;;;1.20;;
76176;SDS011;64938;47.696;8.066;2024-02-14T06:23:32;2.13;;;1.33;;
76176;SDS011;64938;47.696;8.066;2024-02-14T06:25:58;1.20;;;1.03;;
76176;SDS011;64938;47.696;8.066;2024-02-14T06:28:24;2.47;;;1.20;;
76176;SDS011;64938;47.696;8.066;2024-02-14T06:30:50;1.50;;;1.40;;
76176;SDS011;64938;47.696;8.066;2024-02-14T06:33:16;1.30;;;1.20;;
76176;SDS011;64938;47.696;8.066;2024-02-14T06:35:41;1.73;;;1.07;;
76176;SDS011;64938;47.696;8.066;2024-02-14T06:38:07;1.20;;;0.90;;
76176;SDS011;64938;47.696;8.066;2024-02-14T06:40:33;1.40;;;1.30;;
76176;SDS011;64938;47.696;8.066;2024-02-14T06:42:59;1.07;;;1.07;;
76176;SDS011;64938;47.696;8.066;2024-02-14T06:45:25;1.80;;;1.13;;
76176;SDS011;64938;47.696;8.066;2024-02-14T06:47:53;1.80;;;1.30;;
76176;SDS011;64938;47.696;8.066;2024-02-14T06:50:19;1.63;;;0.90;;
76176;SDS011;64938;47.696;8.066;2024-02-14T06:52:45;2.00;;;1.10;;
76176;SDS011;64938;47.696;8.066;2024-02-14T06:55:11;1.57;;;1.17;;
76176;SDS011;64938;47.696;8.066;2024-02-14T06:57:38;1.27;;;0.90;;
76176;SDS011;64938;47.696;8.066;2024-02-14T07:00:04;0.80;;;0.80;;
76176;SDS011;64938;47.696;8.066;2024-02-14T07:02:32;1.17;;;1.07;;
76176;SDS011;64938;47.696;8.066;2024-02-14T07:04:58;1.17;;;0.93;;
76176;SDS011;64938;47.696;8.066;2024-02-14T07:07:23;1.80;;;0.90;;
76176;SDS011;64938;47.696;8.066;2024-02-14T07:09:50;1.27;;;1.10;;
76176;SDS011;64938;47.696;8.066;2024-02-14T07:12:16;1.10;;;1.00;;
76176;SDS011;64938;47.696;8.066;2024-02-14T07:14:42;1.50;;;1.10;;
76176;SDS011;64938;47.696;8.066;2024-02-14T07:17:08;1.30;;;0.90;;
76176;SDS011;64938;47.696;8.066;2024-02-14T07:19:34;2.33;;;1.10;;
76176;SDS011;64938;47.696;8.066;2024-02-14T07:22:00;1.17;;;0.90;;
76176;SDS011;64938;47.696;8.066;2024-02-14T07:24:27;2.20;;;0.80;;
76176;SDS011;64938;47.696;8.066;2024-02-14T07:26:53;1.17;;;0.90;;
76176;SDS011;64938;47.696;8.066;2024-02-14T07:29:19;1.53;;;1.00;;
76176;SDS011;64938;47.696;8.066;2024-02-14T07:31:44;2.03;;;1.10;;
76176;SDS011;64938;47.696;8.066;2024-02-14T07:34:10;1.27;;;0.90;;
76176;SDS011;64938;47.696;8.066;2024-02-14T07:36:37;1.40;;;1.00;;
76176;SDS011;64938;47.696;8.066;2024-02-14T07:39:03;1.53;;;0.93;;
76176;SDS011;64938;47.696;8.066;2024-02-14T07:41:29;2.17;;;1.10;;
76176;SDS011;64938;47.696;8.066;2024-02-14T07:43:56;0.80;;;0.80;;
76176;SDS011;64938;47.696;8.066;2024-02-14T07:46:22;1.10;;;0.80;;
76176;SDS011;64938;47.696;8.066;2024-02-14T07:48:49;1.43;;;0.90;;
76176;SDS011;64938;47.696;8.066;2024-02-14T07:51:14;1.73;;;0.90;;
76176;SDS011;64938;47.696;8.066;2024-02-14T07:53:40;1.70;;;1.00;;
76176;SDS011;64938;47.696;8.066;2024-02-14T07:56:06;1.60;;;0.80;;
76176;SDS011;64938;47.696;8.066;2024-02-14T07:58:33;1.13;;;0.90;;
76176;SDS011;64938;47.696;8.066;2024-02-14T08:00:59;1.03;;;0.80;;
76176;SDS011;64938;47.696;8.066;2024-02-14T08:03:26;0.90;;;0.80;;
76176;SDS011;64938;47.696;8.066;2024-02-14T08:05:51;0.90;;;0.80;;
76176;SDS011;64938;47.696;8.066;2024-02-14T08:08:17;0.70;;;0.70;;
76176;SDS011;64938;47.696;8.066;2024-02-14T08:10:43;0.70;;;0.70;;
76176;SDS011;64938;47.696;8.066;2024-02-14T08:13:09;2.50;;;0.83;;
76176;SDS011;64938;47.696;8.066;2024-02-14T08:15:36;0.90;;;0.90;;
76176;SDS011;64938;47.696;8.066;2024-02-14T08:18:02;1.80;;;0.70;;
76176;SDS011;64938;47.696;8.066;2024-02-14T08:20:28;1.37;;;0.70;;
76176;SDS011;64938;47.696;8.066;2024-02-14T08:22:53;0.90;;;0.90;;
76176;SDS011;64938;47.696;8.066;2024-02-14T08:25:19;0.70;;;0.60;;
76176;SDS011;64938;47.696;8.066;2024-02-14T08:27:45;0.73;;;0.73;;
76176;SDS011;64938;47.696;8.066;2024-02-14T08:30:12;1.17;;;0.90;;
76176;SDS011;64938;47.696;8.066;2024-02-14T08:32:38;1.53;;;0.90;;
76176;SDS011;64938;47.696;8.066;2024-02-14T08:35:04;0.90;;;0.70;;
76176;SDS011;64938;47.696;8.066;2024-02-14T08:37:31;1.70;;;0.83;;
76176;SDS011;64938;47.696;8.066;2024-02-14T08:39:57;0.60;;;0.60;;
76176;SDS011;64938;47.696;8.066;2024-02-14T08:42:23;1.57;;;0.80;;
76176;SDS011;64938;47.696;8.066;2024-02-14T08:44:48;2.03;;;0.73;;
76176;SDS011;64938;47.696;8.066;2024-02-14T08:47:14;0.90;;;0.67;;
76176;SDS011;64938;47.696;8.066;2024-02-14T08:49:40;0.90;;;0.50;;
76176;SDS011;64938;47.696;8.066;2024-02-14T08:52:07;0.80;;;0.80;;
76176;SDS011;64938;47.696;8.066;2024-02-14T08:54:33;0.90;;;0.80;;
76176;SDS011;64938;47.696;8.066;2024-02-14T08:56:59;1.20;;;0.70;;
76176;SDS011;64938;47.696;8.066;2024-02-14T08:59:26;0.93;;;0.83;;
76176;SDS011;64938;47.696;8.066;2024-02-14T09:01:51;1.00;;;0.87;;
76176;SDS011;64938;47.696;8.066;2024-02-14T09:04:17;0.80;;;0.80;;
76176;SDS011;64938;47.696;8.066;2024-02-14T09:06:43;1.30;;;1.00;;
76176;SDS011;64938;47.696;8.066;2024-02-14T09:09:09;1.07;;;0.97;;
76176;SDS011;64938;47.696;8.066;2024-02-14T09:11:38;1.57;;;0.90;;
76176;SDS011;64938;47.696;8.066;2024-02-14T09:14:06;2.30;;;1.00;;
76176;SDS011;64938;47.696;8.066;2024-02-14T09:16:32;4.23;;;1.80;;
76176;SDS011;64938;47.696;8.066;2024-02-14T09:18:59;4.13;;;3.67;;
76176;SDS011;64938;47.696;8.066;2024-02-14T09:21:26;1.13;;;1.07;;
76176;SDS011;64938;47.696;8.066;2024-02-14T09:23:53;1.70;;;1.60;;
76176;SDS011;64938;47.696;8.066;2024-02-14T09:26:19;1.13;;;1.00;;
76176;SDS011;64938;47.696;8.066;2024-02-14T09:28:45;1.60;;;0.90;;
76176;SDS011;64938;47.696;8.066;2024-02-14T09:31:11;1.73;;;1.63;;
76176;SDS011;64938;47.696;8.066;2024-02-14T09:33:38;10.53;;;7.67;;
76176;SDS011;64938;47.696;8.066;2024-02-14T09:36:05;6.90;;;6.10;;
76176;SDS011;64938;47.696;8.066;2024-02-14T09:38:31;4.00;;;2.73;;
76176;SDS011;64938;47.696;8.066;2024-02-14T09:40:58;6.70;;;4.33;;
76176;SDS011;64938;47.696;8.066;2024-02-14T09:43:37;5.83;;;4.33;;
76176;SDS011;64938;47.696;8.066;2024-02-14T09:46:06;6.87;;;4.90;;
76176;SDS011;64938;47.696;8.066;2024-02-14T09:48:32;7.73;;;5.00;;
76176;SDS011;64938;47.696;8.066;2024-02-14T09:50:59;2.80;;;2.20;;
76176;SDS011;64938;47.696;8.066;2024-02-14T09:53:25;5.17;;;3.30;;
76176;SDS011;64938;47.696;8.066;2024-02-14T09:55:51;3.10;;;2.80;;
76176;SDS011;64938;47.696;8.066;2024-02-14T09:58:18;1.63;;;1.33;;
76176;SDS011;64938;47.696;8.066;2024-02-14T10:00:44;7.33;;;5.37;;
76176;SDS011;64938;47.696;8.066;2024-02-14T10:03:10;2.50;;;2.30;;
76176;SDS011;64938;47.696;8.066;2024-02-14T10:05:43;2.30;;;1.83;;
76176;SDS011;64938;47.696;8.066;2024-02-14T10:08:08;1.70;;;1.33;;
76176;SDS011;64938;47.696;8.066;2024-02-14T10:10:37;1.40;;;1.10;;
76176;SDS011;64938;47.696;8.066;2024-02-14T10:13:04;2.37;;;1.30;;
76176;SDS011;64938;47.696;8.066;2024-02-14T10:15:31;1.40;;;0.87;;
76176;SDS011;64938;47.696;8.066;2024-02-14T10:17:58;1.00;;;0.83;;
76176;SDS011;64938;47.696;8.066;2024-02-14T10:20:25;1.50;;;0.90;;
76176;SDS011;64938;47.696;8.066;2024-02-14T10:22:52;2.10;;;1.40;;
76176;SDS011;64938;47.696;8.066;2024-02-14T10:25:19;1.03;;;0.90;;
76176;SDS011;64938;47.696;8.066;2024-02-14T10:27:47;1.67;;;0.90;;
76176;SDS011;64938;47.696;8.066;2024-02-14T10:30:13;1.40;;;0.70;;
76176;SDS011;64938;47.696;8.066;2024-02-14T10:32:39;2.00;;;0.97;;
76176;SDS011;64938;47.696;8.066;2024-02-14T10:35:06;1.30;;;1.10;;
76176;SDS011;64938;47.696;8.066;2024-02-14T10:37:34;1.00;;;0.80;;
76176;SDS011;64938;47.696;8.066;2024-02-14T10:40:02;1.17;;;0.97;;
76176;SDS011;64938;47.696;8.066;2024-02-14T10:42:30;1.83;;;1.00;;
76176;SDS011;64938;47.696;8.066;2024-02-14T10:44:56;2.30;;;1.00;;
76176;SDS011;64938;47.696;8.066;2024-02-14T10:47:30;1.53;;;0.90;;
76176;SDS011;64938;47.696;8.066;2024-02-14T10:50:00;2.33;;;1.07;;
76176;SDS011;64938;47.696;8.066;2024-02-14T10:52:30;1.10;;;0.90;;
76176;SDS011;64938;47.696;8.066;2024-02-14T10:54:58;0.93;;;0.80;;
76176;SDS011;64938;47.696;8.066;2024-02-14T10:57:25;1.00;;;0.90;;
76176;SDS011;64938;47.696;8.066;2024-02-14T10:59:52;1.43;;;0.80;;
76176;SDS011;64938;47.696;8.066;2024-02-14T11:02:18;1.60;;;0.70;;
76176;SDS011;64938;47.696;8.066;2024-02-14T11:04:45;1.07;;;0.97;;
76176;SDS011;64938;47.696;8.066;2024-02-14T11:07:11;1.73;;;1.00;;
76176;SDS011;64938;47.696;8.066;2024-02-14T11:09:38;1.00;;;0.90;;
76176;SDS011;64938;47.696;8.066;2024-02-14T11:12:06;0.73;;;0.73;;
76176;SDS011;64938;47.696;8.066;2024-02-14T11:14:34;1.07;;;0.97;;
76176;SDS011;64938;47.696;8.066;2024-02-14T11:17:01;1.17;;;0.80;;
76176;SDS011;64938;47.696;8.066;2024-02-14T11:19:31;0.80;;;0.80;;
76176;SDS011;64938;47.696;8.066;2024-02-14T11:21:58;0.60;;;0.60;;
76176;SDS011;64938;47.696;8.066;2024-02-14T11:24:28;0.80;;;0.80;;
76176;SDS011;64938;47.696;8.066;2024-02-14T11:26:55;1.10;;;0.97;;
76176;SDS011;64938;47.696;8.066;2024-02-14T11:29:23;1.10;;;1.00;;
76176;SDS011;64938;47.696;8.066;2024-02-14T11:32:01;1.10;;;0.90;;
76176;SDS011;64938;47.696;8.066;2024-02-14T11:34:28;1.20;;;1.10;;
76176;SDS011;64938;47.696;8.066;2024-02-14T11:36:54;1.03;;;0.97;;
76176;SDS011;64938;47.696;8.066;2024-02-14T11:39:20;2.30;;;1.00;;
76176;SDS011;64938;47.696;8.066;2024-02-14T11:41:46;1.50;;;1.10;;
76176;SDS011;64938;47.696;8.066;2024-02-14T11:44:12;1.00;;;0.90;;
76176;SDS011;64938;47.696;8.066;2024-02-14T11:46:38;1.17;;;0.90;;
76176;SDS011;64938;47.696;8.066;2024-02-14T11:49:04;1.17;;;1.07;;
76176;SDS011;64938;47.696;8.066;2024-02-14T11:51:31;1.37;;;1.27;;
76176;SDS011;64938;47.696;8.066;2024-02-14T11:54:00;1.10;;;1.07;;
76176;SDS011;64938;47.696;8.066;2024-02-14T11:56:34;1.80;;;1.10;;
76176;SDS011;64938;47.696;8.066;2024-02-14T11:59:11;1.50;;;1.30;;
76176;SDS011;64938;47.696;8.066;2024-02-14T12:01:37;1.50;;;1.40;;
76176;SDS011;64938;47.696;8.066;2024-02-14T12:04:04;1.40;;;1.30;;
76176;SDS011;64938;47.696;8.066;2024-02-14T12:06:34;2.40;;;1.37;;
76176;SDS011;64938;47.696;8.066;2024-02-14T12:09:01;1.20;;;1.20;;
76176;SDS011;64938;47.696;8.066;2024-02-14T12:11:34;1.10;;;1.10;;
76176;SDS011;64938;47.696;8.066;2024-02-14T12:14:06;1.30;;;1.20;;
76176;SDS011;64938;47.696;8.066;2024-02-14T12:16:34;2.10;;;1.70;;
76176;SDS011;64938;47.696;8.066;2024-02-14T12:19:04;2.10;;;1.90;;
76176;SDS011;64938;47.696;8.066;2024-02-14T12:21:35;1.63;;;1.53;;
76176;SDS011;64938;47.696;8.066;2024-02-14T12:24:02;1.77;;;1.67;;
76176;SDS011;64938;47.696;8.066;2024-02-14T12:26:30;2.40;;;2.20;;
76176;SDS011;64938;47.696;8.066;2024-02-14T12:28:57;2.03;;;1.83;;
76176;SDS011;64938;47.696;8.066;2024-02-14T12:31:23;2.07;;;1.87;;
76176;SDS011;64938;47.696;8.066;2024-02-14T12:33:50;3.93;;;2.40;;
76176;SDS011;64938;47.696;8.066;2024-02-14T12:36:19;1.90;;;1.80;;
76176;SDS011;64938;47.696;8.066;2024-02-14T12:38:45;2.00;;;1.80;;
76176;SDS011;64938;47.696;8.066;2024-02-14T12:41:11;1.47;;;1.37;;
76176;SDS011;64938;47.696;8.066;2024-02-14T12:43:37;1.77;;;1.67;;
76176;SDS011;64938;47.696;8.066;2024-02-14T12:46:03;3.13;;;1.50;;
76176;SDS011;64938;47.696;8.066;2024-02-14T12:48:29;1.40;;;1.30;;
76176;SDS011;64938;47.696;8.066;2024-02-14T12:50:55;2.17;;;1.43;;
76176;SDS011;64938;47.696;8.066;2024-02-14T12:53:23;1.80;;;1.60;;
76176;SDS011;64938;47.696;8.066;2024-02-14T12:55:49;1.50;;;1.40;;
76176;SDS011;64938;47.696;8.066;2024-02-14T12:58:16;1.77;;;1.60;;
76176;SDS011;64938;47.696;8.066;2024-02-14T13:00:42;2.60;;;2.20;;
76176;SDS011;64938;47.696;8.066;2024-02-14T13:03:08;1.73;;;1.63;;
76176;SDS011;64938;47.696;8.066;2024-02-14T13:05:35;1.93;;;1.83;;
76176;SDS011;64938;47.696;8.066;2024-02-14T13:08:02;1.50;;;1.40;;
76176;SDS011;64938;47.696;8.066;2024-02-14T13:10:28;2.37;;;1.70;;
76176;SDS011;64938;47.696;8.066;2024-02-14T13:12:54;1.80;;;1.50;;
76176;SDS011;64938;47.696;8.066;2024-02-14T13:15:20;1.70;;;1.60;;
76176;SDS011;64938;47.696;8.066;2024-02-14T13:17:46;1.60;;;1.50;;
76176;SDS011;64938;47.696;8.066;2024-02-14T13:20:12;1.77;;;1.20;;
76176;SDS011;64938;47.696;8.066;2024-02-14T13:22:40;1.63;;;1.53;;
76176;SDS011;64938;47.696;8.066;2024-02-14T13:25:08;3.10;;;2.80;;
76176;SDS011;64938;47.696;8.066;2024-02-14T13:27:35;3.00;;;1.70;;
76176;SDS011;64938;47.696;8.066;2024-02-14T13:30:01;1.60;;;1.50;;
76176;SDS011;64938;47.696;8.066;2024-02-14T13:32:28;2.00;;;1.90;;
76176;SDS011;64938;47.696;8.066;2024-02-14T13:34:53;1.57;;;1.47;;
76176;SDS011;64938;47.696;8.066;2024-02-14T13:37:19;1.50;;;1.40;;
76176;SDS011;64938;47.696;8.066;2024-02-14T13:39:46;1.57;;;1.47;;
76176;SDS011;64938;47.696;8.066;2024-02-14T13:42:12;1.83;;;1.67;;
76176;SDS011;64938;47.696;8.066;2024-02-14T13:44:38;2.13;;;1.63;;
76176;SDS011;64938;47.696;8.066;2024-02-14T13:47:07;1.70;;;1.60;;
76176;SDS011;64938;47.696;8.066;2024-02-14T13:49:33;1.97;;;1.80;;
76176;SDS011;64938;47.696;8.066;2024-02-14T13:51:59;1.90;;;1.30;;
76176;SDS011;64938;47.696;8.066;2024-02-14T13:54:25;1.40;;;1.30;;
76176;SDS011;64938;47.696;8.066;2024-02-14T13:56:51;2.70;;;1.30;;
76176;SDS011;64938;47.696;8.066;2024-02-14T13:59:35;2.60;;;1.40;;
76176;SDS011;64938;47.696;8.066;2024-02-14T14:02:01;1.40;;;1.30;;
76176;SDS011;64938;47.696;8.066;2024-02-14T14:04:27;1.90;;;1.67;;
76176;SDS011;64938;47.696;8.066;2024-02-14T14:06:53;1.30;;;1.20;;
76176;SDS011;64938;47.696;8.066;2024-02-14T14:09:20;1.27;;;1.17;;
76176;SDS011;64938;47.696;8.066;2024-02-14T14:11:46;2.03;;;1.30;;
76176;SDS011;64938;47.696;8.066;2024-02-14T14:14:15;1.30;;;1.17;;
76176;SDS011;64938;47.696;8.066;2024-02-14T14:16:44;2.20;;;1.70;;
76176;SDS011;64938;47.696;8.066;2024-02-14T14:19:10;1.57;;;1.47;;
76176;SDS011;64938;47.696;8.066;2024-02-14T14:21:36;1.60;;;1.50;;
76176;SDS011;64938;47.696;8.066;2024-02-14T14:24:03;1.73;;;1.27;;
76176;SDS011;64938;47.696;8.066;2024-02-14T14:26:29;1.53;;;1.43;;
76176;SDS011;64938;47.696;8.066;2024-02-14T14:28:55;1.67;;;1.30;;
76176;SDS011;64938;47.696;8.066;2024-02-14T14:31:21;1.20;;;1.10;;
76176;SDS011;64938;47.696;8.066;2024-02-14T14:33:47;1.30;;;1.20;;
76176;SDS011;64938;47.696;8.066;2024-02-14T14:36:14;1.13;;;1.03;;
76176;SDS011;64938;47.696;8.066;2024-02-14T14:38:40;1.10;;;1.00;;
76176;SDS011;64938;47.696;8.066;2024-02-14T14:41:06;0.90;;;0.80;;
76176;SDS011;64938;47.696;8.066;2024-02-14T14:43:32;1.37;;;1.27;;
76176;SDS011;64938;47.696;8.066;2024-02-14T14:45:57;1.80;;;1.53;;